Portada
METAR-TAF:

METAR-TAF

Aeroports :

Malé, Maldives

latitud: 04-12N, longitud: 073-32E, altitud: 2 m

Observació

L'informe es va fer fa 1 hora i 39 minuts, a les 04:00 UTC
Vent 4 kt del Est/Nord-Est
Temperatura 31°C
Humitat 71%
Pressió 1011 hPa
Visibilitat 10 km o més
Escasses núvols a una alçada de 2000 ft

METAR: VRMM 290400Z 07004KT 9999 FEW020 31/25 Q1011 NOSIG

Hora: 10:39 (05:39 UTC)

Pronòstic

L'informe es va fer fa 12 hores i 39 minuts, a les 17:00 UTC
Pronòstic vàlid del 28 a les 18 UTC al 29 a les 24 UTC
Vent 7 kt del Est
Visibilitat 10 km o més
Escasses núvols a una alçada de 1800 ft

TAF: VRMM 281700Z 2818/2924 09007KT 9999 FEW018

Observacions i pronòstics meteorològics de més de 4000 aeroports (METAR i TAF).

Les estacions disponibles són els punts grocs i vermells al mapa.

Posi el ratolí al punt desitjat per veure el nom de l'estació.

Feu clic per veure les observacions i els pronòstics meteorològics.

Per canviar el mapa: feu clic els botons verds amb una creu de color negre per apropar; al botó verd amb un guió per allunyar la imatge; o en les fletxes verdes per a mapes adjacents.


METAR-TAF: